createdAt,value
2023-04-04T00:00:21.435Z,1.40
2023-04-04T00:02:49.371Z,1.50
2023-04-04T00:05:16.161Z,2.33
2023-04-04T00:07:42.803Z,1.38
2023-04-04T00:10:09.772Z,1.42
2023-04-04T00:12:36.613Z,1.90
2023-04-04T00:15:03.483Z,1.67
2023-04-04T00:17:30.498Z,1.73
2023-04-04T00:19:58.054Z,1.40
2023-04-04T00:22:24.666Z,1.67
2023-04-04T00:24:51.616Z,1.60
2023-04-04T00:27:18.285Z,1.55
2023-04-04T00:29:45.481Z,1.60
2023-04-04T00:32:12.254Z,1.55
2023-04-04T00:34:38.869Z,1.40
2023-04-04T00:37:07.525Z,1.80
2023-04-04T00:39:34.472Z,1.42
2023-04-04T00:42:01.487Z,1.88
2023-04-04T00:44:28.488Z,1.85
2023-04-04T00:46:55.202Z,1.90
2023-04-04T00:49:21.828Z,1.70
2023-04-04T00:51:49.344Z,2.15
2023-04-04T00:54:16.237Z,2.15
2023-04-04T00:56:42.845Z,1.67
2023-04-04T00:59:09.678Z,2.13
2023-04-04T01:01:37.079Z,2.10
2023-04-04T01:04:04.589Z,1.67
2023-04-04T01:06:32.812Z,2.03
2023-04-04T01:08:59.910Z,2.13
2023-04-04T01:11:28.338Z,2.05
2023-04-04T01:13:55.900Z,2.00
2023-04-04T01:16:24.191Z,1.85
2023-04-04T01:18:51.620Z,2.05
2023-04-04T01:21:21.889Z,2.60
2023-04-04T01:24:04.499Z,2.22
2023-04-04T01:26:31.695Z,2.17
2023-04-04T01:28:59.169Z,2.65
2023-04-04T01:31:37.614Z,2.47
2023-04-04T01:34:32.054Z,2.47
2023-04-04T01:37:07.781Z,2.22
2023-04-04T01:39:49.509Z,2.13
2023-04-04T01:42:17.042Z,2.35
2023-04-04T01:44:44.516Z,2.38
2023-04-04T01:47:13.180Z,2.55
2023-04-04T01:49:39.828Z,2.43
2023-04-04T01:52:07.517Z,3.00
2023-04-04T01:54:36.076Z,3.03
2023-04-04T01:57:02.793Z,2.90
2023-04-04T01:59:29.625Z,3.00
2023-04-04T02:01:56.375Z,2.50
2023-04-04T02:04:23.479Z,2.83
2023-04-04T02:06:50.421Z,2.55
2023-04-04T02:09:17.079Z,2.63
2023-04-04T02:11:43.776Z,2.30
2023-04-04T02:14:10.412Z,2.55
2023-04-04T02:16:37.042Z,2.65
2023-04-04T02:19:03.894Z,2.58
2023-04-04T02:21:30.726Z,2.55
2023-04-04T02:23:57.371Z,2.40
2023-04-04T02:26:23.993Z,2.83
2023-04-04T02:28:50.643Z,2.60
2023-04-04T02:31:17.361Z,2.40
2023-04-04T02:33:44.041Z,2.55
2023-04-04T02:36:12.095Z,2.97
2023-04-04T02:38:38.756Z,2.47
2023-04-04T02:41:05.366Z,2.60
2023-04-04T02:43:32.073Z,2.75
2023-04-04T02:46:01.157Z,2.65
2023-04-04T02:48:29.816Z,2.55
2023-04-04T02:50:56.415Z,3.28
2023-04-04T02:53:23.073Z,2.53
2023-04-04T02:55:49.688Z,2.80
2023-04-04T02:58:16.470Z,2.80
2023-04-04T03:00:43.393Z,3.03
2023-04-04T03:03:10.448Z,2.63
2023-04-04T03:05:37.287Z,2.70
2023-04-04T03:08:04.923Z,2.90
2023-04-04T03:10:31.821Z,2.63
2023-04-04T03:12:59.228Z,2.63
2023-04-04T03:15:26.666Z,2.20
2023-04-04T03:17:54.302Z,3.72
2023-04-04T03:20:22.107Z,3.00
2023-04-04T03:22:49.240Z,2.25
2023-04-04T03:25:16.724Z,2.95
2023-04-04T03:27:43.407Z,2.78
2023-04-04T03:30:10.792Z,2.97
2023-04-04T03:32:39.365Z,2.63
2023-04-04T03:35:08.898Z,2.63
2023-04-04T03:37:35.552Z,2.75
2023-04-04T03:40:02.467Z,3.58
2023-04-04T03:42:33.697Z,4.43
2023-04-04T03:45:00.888Z,5.40
2023-04-04T03:47:27.526Z,4.15
2023-04-04T03:49:56.165Z,3.75
2023-04-04T03:52:22.848Z,4.37
2023-04-04T03:54:49.474Z,3.25
2023-04-04T03:57:16.078Z,2.85
2023-04-04T03:59:42.692Z,3.20
2023-04-04T04:02:09.369Z,3.30
2023-04-04T04:04:36.270Z,3.10
2023-04-04T04:07:02.856Z,3.42
2023-04-04T04:09:29.519Z,3.78
2023-04-04T04:11:56.527Z,3.97
2023-04-04T04:14:23.179Z,3.45
2023-04-04T04:16:49.882Z,2.97
2023-04-04T04:19:16.685Z,3.58
2023-04-04T04:21:43.966Z,2.80
2023-04-04T04:24:10.668Z,2.95
2023-04-04T04:26:37.272Z,3.10
2023-04-04T04:29:03.900Z,3.33
2023-04-04T04:31:31.418Z,3.30
2023-04-04T04:33:58.252Z,3.33
2023-04-04T04:36:25.779Z,2.75
2023-04-04T04:38:52.394Z,2.90
2023-04-04T04:41:19.068Z,3.70
2023-04-04T04:43:45.875Z,3.55
2023-04-04T04:46:12.561Z,3.03
2023-04-04T04:48:39.239Z,2.90
2023-04-04T04:51:06.208Z,2.83
2023-04-04T04:53:32.947Z,3.05
2023-04-04T04:55:59.514Z,3.38
2023-04-04T04:58:27.609Z,3.22
2023-04-04T05:00:58.953Z,3.90
2023-04-04T05:03:26.072Z,3.30
2023-04-04T05:05:53.538Z,3.50
2023-04-04T05:08:20.161Z,3.53
2023-04-04T05:10:46.842Z,3.10
2023-04-04T05:13:14.079Z,3.28
2023-04-04T05:15:40.871Z,3.05
2023-04-04T05:18:07.464Z,3.33
2023-04-04T05:20:35.373Z,3.50
2023-04-04T05:23:02.032Z,3.58
2023-04-04T05:25:29.070Z,3.50
2023-04-04T05:27:56.417Z,3.33
2023-04-04T05:30:23.543Z,3.10
2023-04-04T05:32:51.640Z,3.65
2023-04-04T05:35:19.012Z,3.20
2023-04-04T05:37:45.691Z,4.72
2023-04-04T05:40:12.420Z,4.53
2023-04-04T05:42:39.072Z,4.68
2023-04-04T05:45:06.307Z,4.82
2023-04-04T05:47:33.097Z,5.53
2023-04-04T05:49:59.708Z,4.78
2023-04-04T05:52:26.717Z,4.70
2023-04-04T05:54:53.309Z,4.70
2023-04-04T05:57:19.945Z,4.88
2023-04-04T05:59:46.619Z,4.68
2023-04-04T06:02:13.506Z,4.43
2023-04-04T06:04:41.111Z,4.70
2023-04-04T06:07:07.874Z,4.03
2023-04-04T06:09:36.296Z,4.25
2023-04-04T06:12:04.748Z,5.40
2023-04-04T06:14:31.435Z,5.83
2023-04-04T06:16:59.053Z,4.20
2023-04-04T06:19:26.061Z,4.40
2023-04-04T06:21:52.696Z,3.60
2023-04-04T06:24:19.570Z,3.72
2023-04-04T06:26:46.513Z,3.28
2023-04-04T06:29:13.364Z,3.35
2023-04-04T06:31:40.079Z,3.15
2023-04-04T06:34:06.756Z,3.60
2023-04-04T06:36:33.408Z,3.20
2023-04-04T06:39:00.050Z,3.50
2023-04-04T06:41:27.285Z,3.03
2023-04-04T06:43:53.991Z,4.97
2023-04-04T06:46:20.659Z,4.43
2023-04-04T06:48:47.281Z,4.70
2023-04-04T06:51:13.954Z,4.32
2023-04-04T06:53:40.587Z,4.75
2023-04-04T06:56:08.204Z,2.70
2023-04-04T06:58:34.810Z,2.50
2023-04-04T07:01:02.297Z,2.47
2023-04-04T07:03:29.030Z,2.80
2023-04-04T07:05:55.667Z,2.92
2023-04-04T07:08:22.963Z,3.05
2023-04-04T07:10:49.655Z,2.90
2023-04-04T07:13:16.843Z,2.50
2023-04-04T07:15:48.939Z,2.90
2023-04-04T07:18:16.639Z,2.85
2023-04-04T07:20:43.857Z,2.65
2023-04-04T07:23:13.402Z,2.70
2023-04-04T07:25:40.050Z,3.30
2023-04-04T07:28:12.972Z,3.00
2023-04-04T07:30:40.292Z,3.28
2023-04-04T07:33:07.269Z,3.10
2023-04-04T07:35:34.990Z,3.35
2023-04-04T07:38:01.620Z,2.90
2023-04-04T07:40:28.268Z,2.47
2023-04-04T07:42:54.967Z,3.80
2023-04-04T07:45:24.852Z,2.95
2023-04-04T07:47:51.645Z,2.83
2023-04-04T07:50:18.608Z,3.47
2023-04-04T07:52:52.301Z,3.42
2023-04-04T07:55:20.204Z,3.83
2023-04-04T07:57:47.313Z,3.88
2023-04-04T08:00:14.800Z,3.83
2023-04-04T08:02:43.863Z,3.88
2023-04-04T08:05:10.782Z,7.32
2023-04-04T08:07:37.528Z,7.90
2023-04-04T08:10:04.411Z,3.78
2023-04-04T08:12:31.043Z,3.30
2023-04-04T08:14:57.650Z,3.13
2023-04-04T08:17:24.811Z,3.33
2023-04-04T08:19:51.565Z,2.90
2023-04-04T08:22:18.611Z,2.90
2023-04-04T08:24:46.279Z,2.78
2023-04-04T08:27:14.975Z,3.45
2023-04-04T08:29:41.973Z,2.95
2023-04-04T08:32:09.217Z,2.55
2023-04-04T08:34:35.821Z,2.60
2023-04-04T08:37:02.511Z,2.70
2023-04-04T08:39:29.107Z,2.15
2023-04-04T08:42:06.628Z,2.45
2023-04-04T08:44:34.932Z,1.75
2023-04-04T08:47:06.179Z,2.30
2023-04-04T08:49:38.214Z,2.97
2023-04-04T08:52:06.494Z,3.22
2023-04-04T08:54:35.011Z,2.50
2023-04-04T08:57:02.555Z,3.27
2023-04-04T08:59:29.425Z,3.13
2023-04-04T09:02:14.480Z,2.78
2023-04-04T09:04:48.704Z,2.85
2023-04-04T09:07:22.913Z,2.10
2023-04-04T09:09:50.999Z,2.80
2023-04-04T09:12:18.646Z,2.63
2023-04-04T09:14:47.648Z,2.67
2023-04-04T09:17:14.312Z,2.33
2023-04-04T09:19:40.953Z,2.28
2023-04-04T09:22:09.085Z,2.42
2023-04-04T09:24:40.544Z,2.40
2023-04-04T09:27:11.676Z,1.95
2023-04-04T09:29:40.145Z,2.33
2023-04-04T09:32:11.121Z,2.20
2023-04-04T09:34:37.976Z,2.65
2023-04-04T09:37:05.812Z,2.42
2023-04-04T09:39:34.241Z,2.40
2023-04-04T09:42:01.690Z,2.70
2023-04-04T09:44:33.324Z,2.60
2023-04-04T09:47:31.138Z,2.40
2023-04-04T09:50:01.800Z,2.10
2023-04-04T09:52:33.246Z,2.50
2023-04-04T09:55:01.551Z,2.30
2023-04-04T09:57:32.769Z,2.80
2023-04-04T10:00:07.136Z,3.03
2023-04-04T10:02:34.084Z,2.63
2023-04-04T10:05:06.050Z,2.50
2023-04-04T10:07:34.021Z,2.85
2023-04-04T10:10:06.620Z,2.85
2023-04-04T10:12:33.352Z,2.45
2023-04-04T10:15:01.319Z,2.83
2023-04-04T10:17:37.625Z,2.25
2023-04-04T10:20:12.947Z,2.70
2023-04-04T10:22:40.260Z,2.70
2023-04-04T10:25:07.888Z,2.47
2023-04-04T10:27:34.882Z,2.75
2023-04-04T10:30:02.288Z,3.20
2023-04-04T10:33:15.528Z,2.53
2023-04-04T10:35:47.885Z,2.90
2023-04-04T10:38:14.670Z,2.80
2023-04-04T10:40:47.016Z,2.67
2023-04-04T10:43:15.759Z,2.97
2023-04-04T10:45:43.258Z,2.70
2023-04-04T10:48:10.747Z,2.55
2023-04-04T10:50:39.400Z,2.65
2023-04-04T10:53:07.654Z,3.10
2023-04-04T10:55:35.549Z,2.97
2023-04-04T10:58:02.905Z,2.40
2023-04-04T11:00:29.726Z,3.00
2023-04-04T11:02:58.509Z,2.72
2023-04-04T11:05:26.262Z,2.70
2023-04-04T11:08:07.737Z,3.10
2023-04-04T11:10:44.657Z,2.83
2023-04-04T11:13:29.286Z,2.92
2023-04-04T11:16:04.108Z,2.80
2023-04-04T11:18:42.884Z,3.03
2023-04-04T11:21:14.143Z,3.33
2023-04-04T11:23:49.867Z,3.20
2023-04-04T11:26:36.600Z,2.97
2023-04-04T11:29:09.863Z,3.20
2023-04-04T11:31:40.742Z,2.78
2023-04-04T11:34:15.444Z,3.33
2023-04-04T11:36:43.157Z,2.97
2023-04-04T11:39:26.834Z,2.80
2023-04-04T11:42:13.862Z,3.22
2023-04-04T11:44:43.038Z,2.88
2023-04-04T11:47:11.808Z,2.72
2023-04-04T11:49:41.644Z,2.47
2023-04-04T11:52:14.973Z,3.05
2023-04-04T11:54:43.838Z,2.95
2023-04-04T11:57:18.927Z,2.60
2023-04-04T11:59:48.757Z,2.75
2023-04-04T12:02:27.743Z,2.63
2023-04-04T12:04:55.479Z,2.50
2023-04-04T12:07:24.720Z,2.63
2023-04-04T12:09:52.353Z,2.45
2023-04-04T12:12:19.897Z,2.67
2023-04-04T12:14:47.155Z,3.00
2023-04-04T12:17:16.159Z,2.38
2023-04-04T12:19:43.950Z,2.45
2023-04-04T12:22:10.927Z,2.65
2023-04-04T12:24:37.929Z,2.55
2023-04-04T12:27:06.202Z,2.08
2023-04-04T12:29:36.484Z,2.55
2023-04-04T12:32:04.519Z,3.08
2023-04-04T12:34:33.251Z,2.83
2023-04-04T12:37:01.847Z,2.28
2023-04-04T12:39:30.130Z,2.30
2023-04-04T12:42:05.420Z,2.30
2023-04-04T12:44:31.979Z,2.50
2023-04-04T12:47:04.821Z,2.17
2023-04-04T12:49:39.421Z,2.45
2023-04-04T12:52:07.723Z,2.10
2023-04-04T12:54:38.831Z,2.45
2023-04-04T12:57:07.550Z,2.30
2023-04-04T12:59:37.731Z,2.25
2023-04-04T13:02:09.097Z,2.30
2023-04-04T13:04:35.948Z,3.30
2023-04-04T13:07:03.292Z,18.77
2023-04-04T13:09:30.345Z,6.20
2023-04-04T13:12:04.612Z,2.85
2023-04-04T13:14:56.382Z,2.85
2023-04-04T13:17:23.113Z,2.03
2023-04-04T13:19:50.060Z,2.17
2023-04-04T13:22:16.670Z,2.53
2023-04-04T13:24:43.425Z,2.28
2023-04-04T13:27:10.153Z,2.22
2023-04-04T13:29:36.867Z,2.63
2023-04-04T13:32:03.467Z,2.00
2023-04-04T13:34:31.311Z,2.47
2023-04-04T13:36:57.939Z,3.20
2023-04-04T13:39:25.213Z,2.28
2023-04-04T13:41:51.867Z,2.33
2023-04-04T13:44:18.513Z,2.70
2023-04-04T13:46:45.140Z,2.03
2023-04-04T13:49:11.855Z,2.60
2023-04-04T13:51:38.581Z,2.28
2023-04-04T13:54:05.151Z,2.35
2023-04-04T13:56:31.791Z,2.67
2023-04-04T13:58:58.505Z,2.60
2023-04-04T14:01:25.196Z,2.53
2023-04-04T14:03:51.859Z,2.88
2023-04-04T14:06:18.560Z,2.20
2023-04-04T14:08:46.618Z,2.53
2023-04-04T14:11:14.107Z,2.40
2023-04-04T14:13:40.734Z,2.30
2023-04-04T14:16:08.628Z,2.53
2023-04-04T14:18:35.431Z,2.10
2023-04-04T14:21:03.081Z,2.67
2023-04-04T14:23:33.069Z,2.13
2023-04-04T14:25:59.763Z,2.25
2023-04-04T14:28:27.205Z,2.50
2023-04-04T14:30:53.907Z,2.38
2023-04-04T14:33:20.512Z,2.65
2023-04-04T14:35:47.107Z,2.55
2023-04-04T14:38:13.818Z,2.30
2023-04-04T14:40:40.404Z,2.58
2023-04-04T14:43:07.810Z,2.60
2023-04-04T14:45:34.710Z,2.28
2023-04-04T14:48:02.013Z,2.35
2023-04-04T14:50:28.668Z,2.40
2023-04-04T14:52:56.670Z,2.67
2023-04-04T14:55:23.684Z,2.30
2023-04-04T15:00:21.123Z,2.20
2023-04-04T15:02:47.959Z,2.40
2023-04-04T15:05:18.778Z,2.38
2023-04-04T15:07:46.630Z,2.30
2023-04-04T15:10:13.647Z,2.15
2023-04-04T15:12:40.613Z,2.72
2023-04-04T15:15:08.432Z,2.63
2023-04-04T15:17:35.128Z,2.28
2023-04-04T15:20:01.916Z,2.15
2023-04-04T15:22:28.794Z,2.35
2023-04-04T15:24:56.702Z,2.35
2023-04-04T15:27:23.584Z,2.60
2023-04-04T15:29:50.288Z,3.08
2023-04-04T15:32:17.174Z,3.15
2023-04-04T15:34:43.834Z,2.80
2023-04-04T15:37:10.673Z,2.60
2023-04-04T15:39:49.662Z,2.38
2023-04-04T15:42:18.894Z,2.33
2023-04-04T15:44:45.638Z,2.65
2023-04-04T15:47:12.325Z,2.50
2023-04-04T15:49:39.420Z,2.63
2023-04-04T15:52:06.225Z,2.40
2023-04-04T15:54:33.014Z,2.10
2023-04-04T15:56:59.881Z,2.75
2023-04-04T15:59:27.393Z,2.20
2023-04-04T16:01:54.285Z,2.42
2023-04-04T16:04:21.098Z,2.20
2023-04-04T16:06:47.881Z,2.50
2023-04-04T16:09:14.577Z,2.30
2023-04-04T16:11:41.334Z,3.10
2023-04-04T16:14:09.451Z,3.03
2023-04-04T16:16:36.709Z,2.80
2023-04-04T16:19:03.384Z,2.53
2023-04-04T16:21:31.241Z,2.20
2023-04-04T16:23:58.114Z,4.22
2023-04-04T16:26:24.942Z,8.98
2023-04-04T16:28:51.766Z,5.35
2023-04-04T16:31:18.586Z,5.05
2023-04-04T16:33:45.468Z,4.18
2023-04-04T16:36:12.559Z,6.10
2023-04-04T16:38:39.706Z,3.35
2023-04-04T16:41:06.551Z,4.80
2023-04-04T16:43:33.342Z,4.20
2023-04-04T16:45:59.967Z,4.60
2023-04-04T16:48:26.734Z,3.63
2023-04-04T16:50:54.745Z,3.42
2023-04-04T16:53:21.499Z,2.92
2023-04-04T16:55:48.254Z,4.75
2023-04-04T16:58:15.095Z,4.95
2023-04-04T17:00:41.980Z,3.50
2023-04-04T17:03:08.999Z,5.97
2023-04-04T17:05:36.278Z,3.45
2023-04-04T17:08:02.961Z,3.20
2023-04-04T17:10:29.683Z,2.90
2023-04-04T17:12:56.602Z,3.03
2023-04-04T17:15:23.347Z,2.80
2023-04-04T17:17:49.950Z,3.03
2023-04-04T17:20:19.551Z,2.65
2023-04-04T17:22:47.399Z,2.63
2023-04-04T17:25:14.235Z,1.83
2023-04-04T17:27:44.460Z,2.78
2023-04-04T17:30:11.948Z,2.70
2023-04-04T17:32:39.231Z,2.70
2023-04-04T17:35:07.043Z,3.55
2023-04-04T17:37:34.245Z,4.85
2023-04-04T17:40:04.443Z,3.10
2023-04-04T17:42:32.182Z,3.22
2023-04-04T17:44:59.006Z,4.22
2023-04-04T17:47:26.359Z,3.42
2023-04-04T17:49:54.229Z,3.95
2023-04-04T17:52:21.590Z,4.90
2023-04-04T17:54:48.842Z,3.13
2023-04-04T17:57:15.727Z,4.05
2023-04-04T17:59:42.750Z,4.22
2023-04-04T18:02:09.400Z,5.78
2023-04-04T18:04:37.998Z,4.60
2023-04-04T18:07:06.442Z,6.87
2023-04-04T18:09:33.050Z,9.13
2023-04-04T18:12:00.935Z,11.13
2023-04-04T18:14:27.628Z,13.85
2023-04-04T18:16:54.415Z,7.03
2023-04-04T18:19:21.278Z,7.32
2023-04-04T18:21:51.607Z,8.00
2023-04-04T18:24:18.302Z,7.13
2023-04-04T18:26:45.193Z,7.40
2023-04-04T18:29:14.757Z,7.30
2023-04-04T18:31:41.775Z,6.40
2023-04-04T18:34:08.662Z,4.80
2023-04-04T18:36:36.480Z,4.93
2023-04-04T18:39:03.681Z,4.65
2023-04-04T18:41:30.720Z,4.75
2023-04-04T18:43:57.369Z,4.32
2023-04-04T18:46:24.249Z,4.15
2023-04-04T18:48:51.082Z,6.25
2023-04-04T18:51:17.682Z,8.38
2023-04-04T18:53:44.386Z,7.78
2023-04-04T18:56:11.180Z,5.97
2023-04-04T18:58:37.803Z,5.45
2023-04-04T19:01:04.451Z,6.72
2023-04-04T19:03:40.671Z,7.00
2023-04-04T19:06:10.280Z,10.18
2023-04-04T19:08:42.700Z,10.73
2023-04-04T19:11:10.678Z,8.38
2023-04-04T19:13:37.471Z,8.68
2023-04-04T19:16:04.842Z,9.32
2023-04-04T19:18:31.524Z,10.30
2023-04-04T19:20:58.832Z,10.85
2023-04-04T19:23:25.636Z,11.07
2023-04-04T19:25:52.996Z,11.80
2023-04-04T19:28:20.104Z,12.90
2023-04-04T19:30:48.920Z,12.48
2023-04-04T19:33:21.932Z,11.43
2023-04-04T19:35:57.161Z,15.07
2023-04-04T19:38:29.454Z,8.75
2023-04-04T19:40:59.258Z,6.00
2023-04-04T19:43:27.003Z,5.20
2023-04-04T19:46:00.256Z,6.47
2023-04-04T19:48:42.851Z,6.20
2023-04-04T19:51:29.611Z,6.15
2023-04-04T19:53:58.511Z,6.15
2023-04-04T19:56:27.484Z,5.53
2023-04-04T19:58:56.737Z,5.63
2023-04-04T20:01:25.858Z,6.00
2023-04-04T20:03:52.473Z,5.97
2023-04-04T20:06:28.990Z,6.53
2023-04-04T20:08:57.363Z,6.55
2023-04-04T20:11:34.699Z,6.93
2023-04-04T20:14:10.010Z,6.82
2023-04-04T20:16:37.243Z,7.80
2023-04-04T20:19:06.795Z,8.10
2023-04-04T20:21:35.686Z,7.82
2023-04-04T20:24:06.025Z,7.82
2023-04-04T20:26:36.013Z,8.20
2023-04-04T20:29:06.611Z,7.97
2023-04-04T20:31:48.308Z,8.25
2023-04-04T20:34:33.851Z,7.60
2023-04-04T20:37:02.853Z,7.03
2023-04-04T20:39:41.585Z,7.70
2023-04-04T20:42:19.893Z,8.13
2023-04-04T20:44:47.146Z,8.77
2023-04-04T20:47:51.251Z,9.43
2023-04-04T20:50:17.947Z,8.45
2023-04-04T20:52:58.826Z,8.73
2023-04-04T20:55:28.296Z,9.70
2023-04-04T21:00:23.715Z,11.77
2023-04-04T21:02:50.459Z,10.57
2023-04-04T21:05:31.904Z,11.18
2023-04-04T21:08:00.419Z,10.70
2023-04-04T21:10:27.040Z,10.23
2023-04-04T21:12:58.432Z,9.43
2023-04-04T21:15:30.072Z,9.35
2023-04-04T21:17:59.469Z,9.73
2023-04-04T21:23:23.211Z,10.18
2023-04-04T21:25:49.956Z,10.00
2023-04-04T21:28:16.562Z,9.82
2023-04-04T21:30:45.182Z,10.13
2023-04-04T21:33:18.994Z,10.90
2023-04-04T21:35:48.132Z,10.55
2023-04-04T21:38:32.837Z,10.30
2023-04-04T21:41:12.850Z,10.43
2023-04-04T21:43:39.436Z,9.85
2023-04-04T21:46:06.136Z,10.50
2023-04-04T21:48:32.797Z,8.93
2023-04-04T21:50:59.409Z,8.23
2023-04-04T21:53:26.071Z,9.18
2023-04-04T21:55:52.710Z,8.32
2023-04-04T21:58:19.325Z,9.18
2023-04-04T22:00:46.366Z,8.98
2023-04-04T22:03:13.104Z,9.18
2023-04-04T22:05:39.785Z,8.85
2023-04-04T22:08:06.691Z,9.52
2023-04-04T22:10:33.647Z,8.98
2023-04-04T22:13:00.388Z,9.20
2023-04-04T22:15:29.895Z,9.60
2023-04-04T22:18:03.681Z,8.70
2023-04-04T22:20:32.364Z,9.77
2023-04-04T22:22:59.930Z,9.20
2023-04-04T22:25:27.285Z,9.05
2023-04-04T22:27:54.030Z,10.05
2023-04-04T22:30:21.845Z,8.57
2023-04-04T22:32:48.586Z,8.88
2023-04-04T22:35:15.268Z,6.40
2023-04-04T22:37:41.929Z,6.38
2023-04-04T22:40:13.179Z,5.53
2023-04-04T22:42:39.903Z,6.03
2023-04-04T22:45:07.171Z,5.55
2023-04-04T22:47:33.854Z,4.50
2023-04-04T22:50:04.725Z,4.50
2023-04-04T22:52:32.077Z,4.53
2023-04-04T22:54:59.652Z,4.68
2023-04-04T22:57:26.269Z,5.40
2023-04-04T22:59:52.921Z,5.10
2023-04-04T23:02:19.552Z,5.15
2023-04-04T23:04:46.205Z,4.47
2023-04-04T23:07:12.942Z,5.03
2023-04-04T23:09:39.540Z,4.90
2023-04-04T23:12:06.580Z,5.50
2023-04-04T23:14:38.722Z,4.60
2023-04-04T23:17:06.986Z,4.32
2023-04-04T23:19:33.624Z,4.40
2023-04-04T23:22:00.641Z,4.38
2023-04-04T23:24:27.524Z,4.22
2023-04-04T23:26:54.223Z,4.22
2023-04-04T23:29:20.896Z,4.25
2023-04-04T23:31:47.534Z,3.75
2023-04-04T23:34:14.194Z,4.00
2023-04-04T23:36:40.957Z,7.72
2023-04-04T23:39:07.624Z,8.73
2023-04-04T23:41:34.233Z,8.48
2023-04-04T23:44:01.126Z,7.78
2023-04-04T23:46:30.370Z,8.13
2023-04-04T23:51:25.688Z,8.18
2023-04-04T23:53:52.641Z,8.23
2023-04-04T23:56:19.219Z,7.00
2023-04-04T23:58:45.859Z,7.32
